• Join FlightAware (Why Join?)
  • Login
  • US Flag 
Gobble Gobble! 
07:17AM EST


 

Airport Tracker/Info


-or-


 

Live Flight TrackerFlight Track Log ✈ JZA7654 ✈ 26-Jul-2013 ✈ CYUL - KDCA

Flight Track Log - Related Links

Times and Time Zones

All times are in EDT time to prevent confusion due to time zone crossing. See the JZA7654 flight status page for this flight to view local times or setup timezone preferences in your user account.

Time Position Orientation Groundspeed Altitude Reporting Facility
EDT Latitude Longitude Course Direction KTS MPH feet Rate Location/Type
06:55PM 45.4500 -73.7500 189° South 10 12 100  Level Montreal Center
06:56PM 45.4667 -73.7167 55° Northeast 160 184 1,100 1,800 Climbing Montreal Center
06:57PM 45.5167 -73.6667 35° Northeast 180 207 3,700 2,400 Climbing Montreal Center
06:58PM 45.5000 -73.5833 106° East 280 322 6,000 2,640 Climbing Montreal Center
06:59PM 45.4500 -73.5333 145° Southeast 270 311 9,000 2,700 Climbing Montreal Center
07:00PM 44.9171 -74.0871 189° South  Level FlightAware Approximate
07:00PM 45.3833 -73.5833 208° Southwest 300 345 11,500  Level Montreal Center
07:01PM 44.8189 -74.1098 189° South  Level FlightAware Approximate
07:01PM 45.3000 -73.6333 203° Southwest 310 357 14,300  Level Montreal Center
07:02PM 45.2333 -73.7167 221° Southwest 310 357 16,300 1,800 Climbing Montreal Center
07:03PM 45.1500 -73.7667 203° Southwest 330 380 18,000 1,620 Climbing Montreal Center
07:04PM 45.0500 -73.7833 187° South 340 391 19,600 1,620 Climbing Montreal Center
07:05PM 44.9500 -73.7833 180° South 350 403 21,300 1,500 Climbing Montreal Center
07:06PM 44.8500 -73.7667 173° South 360 414 22,700 1,260 Climbing Montreal Center
07:07PM 44.7667 -73.7833 188° South 370 426 23,900 1,200 Climbing Montreal Center
07:08PM 44.6500 -73.7833 180° South 380 437 25,200 1,140 Climbing Montreal Center
07:09PM 44.5500 -73.7833 180° South 380 437 26,200 1,140 Climbing Montreal Center
07:10PM 44.4333 -73.7833 180° South 390 449 27,500 1,140 Climbing Montreal Center
07:11PM 44.3333 -73.8000 187° South 390 449 28,500 960 Climbing Montreal Center
07:12PM 44.2167 -73.7667 168° South 390 449 29,500 840 Climbing Montreal Center
07:13PM 44.1167 -73.7833 187° South 400 460 30,200 660 Climbing Montreal Center
07:14PM 43.9833 -73.7833 180° South 410 472 30,900 -60 Climbing Montreal Center
07:15PM 43.8833 -73.7833 180° South 420 483 30,100 -480 Descending Montreal Center
07:16PM 43.7500 -73.8000 185° South 440 506 30,000 -60 Descending Montreal Center
07:17PM 43.6333 -73.8000 180° South 440 506 30,000  Level Montreal Center
07:18PM 43.5167 -73.7833 174° South 450 518 30,000  Level Montreal Center
07:19PM 43.3550 -73.8022 185° South 441 507 30,000  Level Boston Center
07:20PM 43.2364 -73.8022 180° South 436 502 30,000  Level Boston Center
07:21PM 43.1156 -73.8025 180° South 436 502 30,000  Level Boston Center
07:22PM 42.9986 -73.8028 180° South 436 502 30,000  Level Boston Center
07:23PM 42.8800 -73.8058 181° South 436 502 30,000  Level Boston Center
07:24PM 42.7611 -73.8089 181° South 430 495 30,000  Level Boston Center
07:25PM 42.6403 -73.8089 180° South 430 495 30,000  Level Boston Center
07:26PM 42.5150 -73.8089 180° South 425 489 30,000  Level Boston Center
07:27PM 42.3922 -73.8119 181° South 425 489 30,000  Level Boston Center
07:28PM 42.2733 -73.8150 181° South 430 495 30,000  Level Boston Center
07:29PM 42.1503 -73.8178 181° South 436 502 30,000  Level Boston Center
07:30PM 42.0294 -73.8208 181° South 436 502 30,000  Level Boston Center
07:31PM 41.9083 -73.8236 181° South 436 502 30,000 -180 Level Boston Center
07:32PM 41.8106 -73.8244 180° South 436 502 29,700 -780 Descending Boston Center
07:33PM 41.6789 -73.8381 184° South 436 502 28,500 -1,140 Descending Boston Center
07:35PM 41.4625 -74.0239 213° Southwest 451 519 26,500 -900 Descending New York Center
07:36PM 41.3517 -74.1153 212° Southwest 464 534 26,000 -300 Descending New York Center
07:37PM 41.2514 -74.2014 213° Southwest 459 528 26,000  Level New York Center
07:38PM 41.1450 -74.2786 209° Southwest 453 521 26,000  Level New York Center
07:39PM 41.0464 -74.3642 213° Southwest 440 506 26,000  Level New York Center
07:40PM 40.9600 -74.4667 222° Southwest 427 491 26,000  Level New York Center
07:41PM 40.8647 -74.5769 221° Southwest 440 506 26,000 -120 Level New York Center
07:42PM 40.7697 -74.6867 221° Southwest 452 520 25,800 -660 Descending New York Center
07:43PM 40.6742 -74.8014 222° Southwest 457 526 24,800 -1,020 Descending New York Center
07:44PM 40.5764 -74.9133 221° Southwest 462 532 23,800 -1,020 Descending New York Center
07:45PM 40.4872 -75.0197 222° Southwest 456 525 22,800 -1,320 Descending New York Center
07:46PM 40.3914 -75.1283 221° Southwest 451 519 21,300 -2,280 Descending New York Center
07:47PM 40.3022 -75.2317 221° Southwest 451 519 18,400 -1,680 Descending New York Center
07:48PM 40.2278 -75.3247 224° Southwest 422 486 18,000 -240 Descending New York Center
07:49PM 40.1375 -75.4464 226° Southwest 421 484 18,000  Level New York Center
07:50PM 40.0689 -75.5475 228° Southwest 415 478 18,000  Level New York Center
07:51PM 39.9847 -75.6664 227° Southwest 415 478 18,000  Level New York Center
07:52PM 39.9139 -75.7669 227° Southwest 421 484 18,000  Level New York Center
07:53PM 39.8294 -75.8853 227° Southwest 415 478 18,000  Level New York Center
07:54PM 39.7586 -75.9828 227° Southwest 415 478 18,000 -180 Level New York Center
07:55PM 39.6806 -76.0931 227° Southwest 421 484 17,700 -1,500 Descending New York Center
07:57PM 39.5333 -76.3000 227° Southwest 391 450 13,900 -2,040 Descending Potomac TRACON
07:58PM 39.4667 -76.4000 229° Southwest 373 429 12,100 -960 Descending Potomac TRACON
07:59PM 39.3833 -76.4833 218° Southwest 369 425 12,000 -540 Descending Potomac TRACON
08:00PM 39.3000 -76.5500 212° Southwest 376 433 11,100 -1,020 Descending Potomac TRACON
08:01PM 39.2167 -76.6167 212° Southwest 342 394 10,000 -600 Descending Potomac TRACON
08:02PM 39.1500 -76.6833 218° Southwest 283 326 10,000  Level Potomac TRACON
08:03PM 39.1000 -76.7667 232° Southwest 282 325 10,000 -360 Level Potomac TRACON
08:04PM 39.0833 -76.8667 258° West 278 320 9,300 -900 Descending Potomac TRACON
08:05PM 39.0667 -76.9500 256° West 236 272 8,300 -1,200 Descending Potomac TRACON
08:06PM 39.0500 -77.0333 256° West 232 267 6,900 -1,320 Descending Potomac TRACON
08:07PM 39.0500 -77.1000 270° West 227 261 5,700 -960 Descending Potomac TRACON
08:08PM 39.0500 -77.1833 270° West 192 221 5,000 -900 Descending Potomac TRACON
08:09PM 39.0167 -77.2000 201° Southwest 185 213 3,900 -1,020 Descending Potomac TRACON
08:10PM 38.9833 -77.1667 142° Southeast 183 211 3,000 -840 Descending Potomac TRACON
08:11PM 38.9500 -77.1333 142° Southeast 177 204 2,300 -780 Descending Potomac TRACON
08:12PM 38.9167 -77.0833 131° Southeast 142 163 1,500 -840 Descending Potomac TRACON
08:13PM 38.8833 -77.0500 142° Southeast 138 159 700 -840 Descending Potomac TRACON